Airfield :
LOGIN :

Register | Disclaimer

   EN    FR    IT 

 










Legend :    VFR   Marginal VFR   IFR   Intensive IFR   Very Intensive IFR
Visi :
Ceiling :
>= 8 km
>= 3000ft
5 to 8 km
1000 to 3000 ft
1500m to 5 km
500 to 1000 ft
800 to 1500m
200 to 500 ft
< 800m
< 200 ft
Symbols :   Thunderstorms  Fog  Heavy snow  Heavy precipitations  Wind > 20 kt
SIGMETs :     Misc.  Thunderstorms  Icing  Turbulence  Mountain Waves  Volcanic Ashes






- Airport Elevation : 291 ft
- IATA code : ORY


LFPO - Paris-Orly

CURRENT METAR :
  • 041900Z 24013KT 200V260 9999 BKN029 22/16 Q1018 NOSIG

EXPIRED METARs :
  • 041830Z 23016G26KT 9999 BKN030 22/15 Q1018 NOSIG
  • 041800Z 24012KT 200V260 9999 OVC031 22/15 Q1018 NOSIG
  • 041730Z 23012KT 200V260 9999 OVC032 22/15 Q1018 NOSIG
  • 041700Z 23015KT 9999 BKN033 23/15 Q1018 NOSIG
  • 041630Z 23016KT 9999 SCT033 BKN050 23/15 Q1018 NOSIG

TAF TAF LFPO
Valid from the 04 at 18:00 until the 06 at 00:00 UTC


041700Z 0418/0524 23012KT 9999 BKN030
TEMPO 0418/0421 24015G25KT
BECMG 0421/0424 BKN012
TEMPO 0500/0508 BKN006
PROB40
TEMPO 0502/0507 2500 -RADZ BKN004
BECMG 0509/0512 25015G25KT BKN030
PROB40
TEMPO 0514/0517 -RA BKN025
BECMG 0517/0519 27010KT CAVOK
ATIS : +33 1 49 75 65 80



MET'MAP, your aeronautical weather chart ! - Copyright ORBIFLY December 2007 - Disclaimer

ORBIFLY MET'MAP TEAM :

Programming & Development : Alexandra Zaïnal
Concept & original design : Baudouin d'Aumeries
Assistance for programming : Marc-Olivier Méhu
Technical & hardware support : Manuel Goepfert

Contact : metmap@orbifly.com




SOURCES & CREDITS :

   NOAA